Weather at El Alto International Airport

Public forecast

Using degrees Celsius for public forecast. Weather courtesy of forecast.io.

Current aviation weather report (METAR) for El Alto International Airport

Retrieved 2020/11/30 13:00 UTC (36 minutes ago):

SLLP 301300Z 13006KT 9999 FEW008 SCT200 12/02 Q1039

Aviation forecast (TAF) for El Alto International Airport

Retrieved 2020/11/30 12:00 UTC (2 hours ago):

TAF SLLP 301000Z 3012/0112 06006KT 9999 FEW015 TX19/3020Z TN04/0110Z BECMG 3015/3017 13012KT TEMPO 3019/3023 TS FEW020CB